Wilson, Wisconsin
Current Conditions -  °F | °C
As of 11:15 AM on Saturday 25 Oct 2014 (Local Time) from KLUM Reporting Station
Clear Clear  
Wind Chill: 57°   Ceiling: Unl
Heat Index: 57°   Visibility: 10mi
Dew Point: 32°   Wind: 14mph
Humidity: 39%   Direction: 290°WNW
Pressure: 30"   Gusts: 26mph
Location:  44.95°N, 92.17°W
Report Text: KLUM 251615Z AUTO 29012G23KT 10SM CLR 14/00 A3000 RMK AO2 T01390001
Loading
Personal Weather Stations






























Interactive Weather Map
Tropical Storm Tracking
New forecast layout! Learn more

10-Day Weather Forecast

Advertisements
Track Severe Weather on mobile